createdAt,value
2023-05-19T00:03:35.882Z,10.12
2023-05-19T00:08:44.944Z,10.31
2023-05-19T00:13:54.050Z,10.38
2023-05-19T00:19:03.917Z,10.38
2023-05-19T00:24:13.568Z,10.31
2023-05-19T00:29:22.695Z,10.31
2023-05-19T00:34:31.828Z,10.19
2023-05-19T00:39:41.566Z,10.19
2023-05-19T00:44:51.974Z,9.69
2023-05-19T00:50:00.462Z,9.62
2023-05-19T00:55:08.928Z,9.81
2023-05-19T01:00:19.328Z,9.5
2023-05-19T01:05:27.836Z,9.75
2023-05-19T01:51:51.176Z,9.56
2023-05-19T01:57:00.937Z,9.12
2023-05-19T02:02:10.068Z,9.06
2023-05-19T02:07:19.815Z,9.19
2023-05-19T02:12:30.214Z,8.62
2023-05-19T02:17:38.732Z,8.5
2023-05-19T02:22:47.811Z,8.19
2023-05-19T02:27:56.306Z,8
2023-05-19T02:33:06.155Z,8
2023-05-19T02:38:15.203Z,8.12
2023-05-19T02:43:26.214Z,8.62
2023-05-19T02:48:35.347Z,8.75
2023-05-19T02:53:43.813Z,8.31
2023-05-19T02:58:53.572Z,7.88
2023-05-19T03:04:02.531Z,8
2023-05-19T03:09:11.810Z,8.25
2023-05-19T03:14:20.285Z,8.44
2023-05-19T03:19:30.685Z,8.44
2023-05-19T03:24:40.480Z,8.69
2023-05-19T04:11:02.554Z,8.62
2023-05-19T04:16:12.370Z,9
2023-05-19T04:21:21.401Z,8.62
2023-05-19T04:26:29.897Z,8.81
2023-05-19T04:31:38.435Z,8.69
2023-05-19T04:36:49.505Z,8.5
2023-05-19T04:41:57.252Z,8.38
2023-05-19T04:47:07.094Z,8.44
2023-05-19T04:52:16.137Z,8.69
2023-05-19T04:57:26.551Z,8.69
2023-05-19T05:43:48.620Z,9.69
2023-05-19T05:48:57.088Z,9.38
2023-05-19T05:54:06.225Z,10
2023-05-19T05:59:15.333Z,10.31
2023-05-19T06:04:24.459Z,10.38
2023-05-19T06:09:34.890Z,10.56
2023-05-19T06:14:43.980Z,10.69
2023-05-19T06:19:53.733Z,10.81
2023-05-19T06:25:03.495Z,10.81
2023-05-19T06:30:12.615Z,11
2023-05-19T06:35:22.416Z,11.12
2023-05-19T06:40:31.881Z,11.31
2023-05-19T06:45:40.613Z,11.31
2023-05-19T06:50:49.740Z,11.19
2023-05-19T06:56:00.542Z,11.38
2023-05-19T07:16:37.990Z,12.31
2023-05-19T07:21:47.660Z,12.5
2023-05-19T08:13:22.069Z,14.06
2023-05-19T08:18:31.172Z,14.38
2023-05-19T08:23:40.296Z,14.38
2023-05-19T08:28:48.798Z,14.5
2023-05-19T08:33:57.899Z,14.44
2023-05-19T08:39:07.694Z,14.69
2023-05-19T08:44:19.165Z,14.69
2023-05-19T08:49:27.192Z,14.69
2023-05-19T08:54:35.658Z,14.94
2023-05-19T08:59:44.777Z,15.06
2023-05-19T09:04:54.067Z,15
2023-05-19T09:10:03.021Z,15.12
2023-05-19T09:15:11.503Z,15.19
2023-05-19T09:20:21.271Z,15.56
2023-05-19T09:25:29.725Z,15.5
2023-05-19T09:30:38.868Z,15.44
2023-05-19T09:35:47.988Z,15.38
2023-05-19T09:40:57.738Z,15.69
2023-05-19T09:46:06.360Z,15.81
2023-05-19T09:51:15.970Z,15.69
2023-05-19T09:56:25.733Z,15.94
2023-05-19T10:01:34.312Z,15.94
2023-05-19T10:06:43.349Z,16.25
2023-05-19T10:11:53.122Z,16.38
2023-05-19T10:17:03.105Z,16.12
2023-05-19T10:22:12.629Z,16.5
2023-05-19T10:27:21.140Z,16.56
2023-05-19T10:32:29.908Z,16.31
2023-05-19T11:18:53.002Z,17.12
2023-05-19T11:24:02.758Z,16.69
2023-05-19T11:29:11.848Z,16.94
2023-05-19T11:34:21.577Z,17.31
2023-05-19T11:39:30.700Z,17.31
2023-05-19T12:28:48.715Z,17.38
2023-05-19T12:33:55.992Z,17.56
2023-05-19T12:39:07.015Z,17.19
2023-05-19T12:44:16.773Z,17.69
2023-05-19T12:49:25.270Z,17.75
2023-05-19T12:54:35.824Z,17.69
2023-05-19T13:51:34.535Z,18.12
2023-05-19T13:56:43.656Z,18.06
2023-05-19T14:01:52.841Z,18.38
2023-05-19T14:07:03.185Z,18.19
2023-05-19T14:12:11.028Z,18.31
2023-05-19T14:17:20.820Z,18.12
2023-05-19T15:14:10.085Z,18.38
2023-05-19T15:19:19.825Z,18.44
2023-05-19T15:24:34.057Z,18.38
2023-05-19T15:29:43.214Z,18.25
2023-05-19T15:35:12.138Z,18.44
2023-05-19T15:40:21.898Z,18.38
2023-05-19T15:45:35.503Z,18.06
2023-05-19T15:50:45.888Z,17.88
2023-05-19T15:55:58.179Z,18
2023-05-19T16:01:05.415Z,18.12
2023-05-19T16:06:14.535Z,18.38
2023-05-19T16:11:30.706Z,18.31
2023-05-19T16:16:39.272Z,18.25
2023-05-19T16:21:49.575Z,18.19
2023-05-19T16:26:59.978Z,18.25
2023-05-19T16:32:09.299Z,18.06
2023-05-19T16:37:18.859Z,18.06
2023-05-19T16:42:28.003Z,17.94
2023-05-19T16:47:36.553Z,17.88
2023-05-19T16:52:46.873Z,18.06
2023-05-19T16:57:55.335Z,17.94
2023-05-19T17:03:05.878Z,17.81
2023-05-19T17:08:17.414Z,17.75
2023-05-19T17:13:25.905Z,17.69
2023-05-19T17:18:36.295Z,17.75
2023-05-19T17:23:49.893Z,17.75
2023-05-19T17:29:02.872Z,17.56
2023-05-19T17:34:11.988Z,17.62
2023-05-19T17:39:21.758Z,17.62
2023-05-19T17:44:31.509Z,17.62
2023-05-19T17:49:40.618Z,17.5
2023-05-19T17:54:48.449Z,17.56
2023-05-19T18:00:05.056Z,17.5
2023-05-19T18:05:06.051Z,17.38
2023-05-19T18:51:28.791Z,17
2023-05-19T18:56:37.265Z,16.94
2023-05-19T19:01:45.936Z,16.81
2023-05-19T19:06:55.513Z,16.75
2023-05-19T19:12:05.248Z,16.69
2023-05-19T19:17:15.796Z,16.5
2023-05-19T19:22:26.051Z,16.44
2023-05-19T19:27:35.834Z,16.44
2023-05-19T19:32:44.980Z,16.38
2023-05-19T20:19:11.575Z,15.62
2023-05-19T20:24:21.252Z,15.38
2023-05-19T20:29:30.368Z,15.5
2023-05-19T20:34:40.240Z,15.25
2023-05-19T20:39:47.980Z,15.25
2023-05-19T20:44:57.092Z,15.12
2023-05-19T20:50:06.235Z,15
2023-05-19T20:55:14.698Z,14.88
2023-05-19T21:00:24.467Z,14.81
2023-05-19T21:05:33.379Z,14.69
2023-05-19T21:10:41.420Z,14.69
2023-05-19T21:15:50.524Z,14.69
2023-05-19T21:20:59.030Z,14.69
2023-05-19T21:26:08.778Z,14.81
2023-05-19T21:31:17.299Z,14.75
2023-05-19T21:36:25.770Z,14.69
2023-05-19T21:41:34.213Z,15
2023-05-19T21:46:46.036Z,15
2023-05-19T21:51:55.015Z,14.94
2023-05-19T21:57:04.797Z,14.88
2023-05-19T22:02:14.628Z,14.88
2023-05-19T22:07:24.311Z,14.88
2023-05-19T22:12:32.835Z,14.81
2023-05-19T22:17:43.267Z,14.75
2023-05-19T23:04:05.337Z,13.88
2023-05-19T23:09:13.732Z,13.75
2023-05-19T23:14:23.503Z,13.81
2023-05-19T23:19:32.603Z,13.75
2023-05-19T23:24:42.367Z,13.69
2023-05-19T23:29:50.895Z,13.88
2023-05-19T23:35:00.616Z,13.81
2023-05-19T23:40:10.392Z,13.75
2023-05-19T23:45:20.777Z,13.75
2023-05-19T23:50:30.554Z,13.69
